Time;durP1;ratioP1;P1;durP2;ratioP2;P2;SDS_P1;SDS_P2;PMS_P1;PMS_P2;Temp;Humidity;BMP_temperature;BMP_pressure;BME280_temperature;BME280_humidity;BME280_pressure;Samples;Min_cycle;Max_cycle;Signal;HPM_P1;HPM_P2
2022/01/03 00:00:24;;;;;;;3.30;1.57;;;10.20;99.90;;;;;;5013443;28;20508;-69
2022/01/03 00:02:52;;;;;;;2.20;2.00;;;10.20;99.90;;;;;;5013280;28;20414;-70
2022/01/03 00:05:17;;;;;;;2.33;1.80;;;10.10;99.90;;;;;;5013415;28;20434;-69
2022/01/03 00:07:44;;;;;;;1.50;1.30;;;10.10;99.90;;;;;;5013485;28;20400;-70
2022/01/03 00:10:11;;;;;;;2.00;1.80;;;10.10;99.90;;;;;;5013723;28;20168;-70
2022/01/03 00:12:38;;;;;;;3.00;1.40;;;10.10;99.90;;;;;;5013261;28;20446;-70
2022/01/03 00:15:05;;;;;;;1.87;1.77;;;10.10;99.90;;;;;;5012796;28;20427;-70
2022/01/03 00:17:31;;;;;;;2.00;1.90;;;10.10;99.90;;;;;;5012848;28;20399;-70
2022/01/03 00:19:57;;;;;;;1.83;1.67;;;10.10;99.90;;;;;;5012975;28;20466;-69
2022/01/03 00:22:23;;;;;;;2.90;1.93;;;10.10;99.90;;;;;;5012776;28;20171;-69
2022/01/03 00:25:00;;;;;;;3.70;2.07;;;10.10;99.90;;;;;;5012892;28;20431;-69
2022/01/03 00:27:40;;;;;;;4.30;1.53;;;10.10;99.90;;;;;;5012800;28;20768;-69
2022/01/03 00:30:06;;;;;;;1.43;1.20;;;10.10;99.90;;;;;;5012819;28;20411;-70
2022/01/03 00:32:36;;;;;;;1.73;1.60;;;10.10;99.90;;;;;;5012614;28;20497;-69
2022/01/03 00:35:03;;;;;;;1.70;1.60;;;10.20;99.90;;;;;;5012643;28;20508;-69
2022/01/03 00:37:31;;;;;;;3.20;1.50;;;10.20;99.90;;;;;;5013117;28;20418;-69
2022/01/03 00:39:58;;;;;;;2.00;1.03;;;10.20;99.90;;;;;;5012423;28;20996;-70
2022/01/03 00:42:24;;;;;;;2.80;1.80;;;10.20;99.90;;;;;;5012370;28;20456;-70
2022/01/03 00:44:51;;;;;;;1.53;1.43;;;10.10;99.90;;;;;;5012107;28;20465;-71
2022/01/03 00:47:17;;;;;;;2.70;1.83;;;10.10;99.90;;;;;;5012573;28;20303;-70
2022/01/03 00:49:42;;;;;;;1.60;1.20;;;10.10;99.90;;;;;;5012266;28;20457;-70
2022/01/03 00:52:10;;;;;;;1.90;1.63;;;10.10;99.90;;;;;;5012332;28;20232;-69
2022/01/03 00:54:36;;;;;;;1.53;1.20;;;10.10;99.90;;;;;;5012080;28;20192;-68
2022/01/03 00:57:19;;;;;;;2.50;1.33;;;10.10;99.90;;;;;;5012351;28;20411;-69
2022/01/03 00:59:49;;;;;;;3.47;1.40;;;10.10;99.90;;;;;;5012178;28;20526;-69
2022/01/03 01:02:18;;;;;;;1.77;1.67;;;10.10;99.90;;;;;;5012072;28;20392;-70
2022/01/03 01:04:45;;;;;;;1.40;1.30;;;10.10;99.90;;;;;;5012222;28;20434;-69
2022/01/03 01:07:12;;;;;;;3.23;1.40;;;10.00;99.90;;;;;;5011957;28;20490;-70
2022/01/03 01:09:38;;;;;;;2.80;1.87;;;10.00;99.90;;;;;;5012015;28;20411;-70
2022/01/03 01:12:06;;;;;;;2.30;1.37;;;9.90;99.90;;;;;;5011967;28;20403;-70
2022/01/03 01:14:32;;;;;;;3.63;1.47;;;9.90;99.90;;;;;;5011864;28;20423;-69
2022/01/03 01:16:58;;;;;;;4.93;1.50;;;9.80;99.90;;;;;;5012209;28;20822;-68
2022/01/03 01:19:26;;;;;;;1.30;1.20;;;9.80;99.90;;;;;;5011943;28;20419;-69
2022/01/03 01:21:52;;;;;;;1.57;1.37;;;9.80;99.90;;;;;;5011791;28;20194;-68
2022/01/03 01:24:22;;;;;;;1.17;1.07;;;9.80;99.90;;;;;;5012257;28;20476;-69
2022/01/03 01:29:32;;;;;;;1.87;1.77;;;9.70;99.90;;;;;;5012185;28;20907;-69
2022/01/03 01:32:01;;;;;;;2.67;2.47;;;9.70;99.90;;;;;;5011575;28;20410;-69
2022/01/03 01:34:29;;;;;;;1.30;1.20;;;9.70;99.90;;;;;;5011584;28;20829;-68
2022/01/03 01:36:58;;;;;;;2.53;1.27;;;9.60;99.90;;;;;;5011241;28;20433;-68
2022/01/03 01:39:27;;;;;;;2.07;1.13;;;9.60;99.90;;;;;;5011619;28;20894;-69
2022/01/03 01:41:59;;;;;;;1.97;1.13;;;9.60;99.90;;;;;;5011495;28;20455;-69
2022/01/03 01:44:25;;;;;;;3.90;1.73;;;9.60;99.90;;;;;;5010339;28;20450;-68
2022/01/03 01:46:55;;;;;;;1.67;1.10;;;9.60;99.90;;;;;;5011976;28;20415;-69
2022/01/03 01:49:25;;;;;;;1.43;1.30;;;9.60;99.90;;;;;;5011609;28;20207;-68
2022/01/03 01:51:58;;;;;;;1.40;1.30;;;9.60;99.90;;;;;;5011269;28;20919;-68
2022/01/03 01:54:34;;;;;;;1.67;1.57;;;9.60;99.90;;;;;;5011389;28;20496;-69
2022/01/03 01:57:05;;;;;;;2.10;1.90;;;9.60;99.90;;;;;;5011469;28;20418;-69
2022/01/03 01:59:40;;;;;;;1.27;1.17;;;9.60;99.90;;;;;;5011364;28;20407;-69
2022/01/03 02:02:08;;;;;;;2.90;1.93;;;9.60;99.90;;;;;;5011331;28;20415;-69
2022/01/03 02:04:46;;;;;;;1.97;1.27;;;9.60;99.90;;;;;;5012419;28;20506;-70
2022/01/03 02:07:51;;;;;;;1.40;1.30;;;9.60;99.90;;;;;;5015388;28;20403;-70
2022/01/03 02:10:17;;;;;;;1.13;1.10;;;9.50;99.90;;;;;;5015272;28;20403;-70
2022/01/03 02:12:49;;;;;;;1.90;1.03;;;9.50;99.90;;;;;;5015507;28;20441;-69
2022/01/03 02:15:16;;;;;;;2.77;1.47;;;9.50;99.90;;;;;;5015204;28;20184;-70
2022/01/03 02:17:44;;;;;;;1.97;1.40;;;9.50;99.90;;;;;;5015410;28;20403;-69
2022/01/03 02:20:12;;;;;;;1.83;0.90;;;9.40;99.90;;;;;;5015318;28;20953;-69
2022/01/03 02:22:40;;;;;;;1.20;0.97;;;9.40;99.90;;;;;;5013938;28;20410;-70
2022/01/03 02:25:07;;;;;;;1.27;1.00;;;9.40;99.90;;;;;;5015244;28;20527;-70
2022/01/03 02:27:33;;;;;;;0.90;0.90;;;9.40;99.90;;;;;;5015170;28;20397;-70
2022/01/03 02:29:59;;;;;;;1.00;1.00;;;9.40;99.90;;;;;;5015159;28;20401;-70
2022/01/03 02:32:24;;;;;;;1.10;0.97;;;9.30;99.90;;;;;;5015614;28;20777;-70
2022/01/03 02:34:50;;;;;;;0.73;0.60;;;9.30;99.90;;;;;;5015400;28;20965;-70
2022/01/03 02:37:16;;;;;;;1.03;0.83;;;9.30;99.90;;;;;;5015463;28;20165;-70
2022/01/03 02:39:42;;;;;;;6.60;1.10;;;9.30;99.90;;;;;;5015108;28;20303;-70
2022/01/03 02:42:08;;;;;;;0.90;0.80;;;9.30;99.90;;;;;;5015740;28;20460;-69
2022/01/03 02:44:33;;;;;;;2.27;1.07;;;9.20;99.90;;;;;;5018538;28;20471;-69
2022/01/03 02:46:59;;;;;;;0.97;0.97;;;9.20;99.90;;;;;;5033580;28;20263;-69
2022/01/03 02:49:24;;;;;;;1.33;1.00;;;9.20;99.90;;;;;;5018633;28;20275;-69
2022/01/03 02:51:50;;;;;;;1.03;0.90;;;9.20;99.90;;;;;;5018765;28;20173;-70
2022/01/03 02:54:15;;;;;;;2.10;0.93;;;9.20;99.90;;;;;;5018034;28;20198;-70
2022/01/03 02:56:42;;;;;;;0.80;0.80;;;9.20;99.90;;;;;;5016416;28;20534;-70
2022/01/03 02:59:16;;;;;;;1.10;1.10;;;9.20;99.90;;;;;;5016242;28;20178;-69
2022/01/03 03:01:46;;;;;;;1.13;1.00;;;9.20;99.90;;;;;;5015440;28;20563;-69
2022/01/03 03:04:12;;;;;;;4.00;1.20;;;9.20;99.90;;;;;;5014414;28;20433;-69
2022/01/03 03:06:37;;;;;;;1.13;0.70;;;9.20;99.90;;;;;;5014351;28;20405;-69
2022/01/03 03:09:05;;;;;;;1.03;0.80;;;9.20;99.90;;;;;;5014146;28;20416;-68
2022/01/03 03:11:35;;;;;;;3.63;1.07;;;9.30;99.90;;;;;;5014331;28;20563;-69
2022/01/03 03:14:01;;;;;;;1.00;1.00;;;9.30;99.90;;;;;;5013749;28;20429;-69
2022/01/03 03:16:27;;;;;;;0.97;0.73;;;9.30;99.90;;;;;;5012674;28;20453;-69
2022/01/03 03:18:53;;;;;;;5.07;1.00;;;9.30;99.90;;;;;;5013943;28;20411;-69
2022/01/03 03:21:19;;;;;;;2.93;0.80;;;9.30;99.90;;;;;;5013940;28;20574;-69
2022/01/03 03:23:45;;;;;;;0.67;0.67;;;9.30;99.90;;;;;;5013773;28;20955;-69
2022/01/03 03:26:11;;;;;;;0.70;0.70;;;9.30;99.90;;;;;;5014001;28;20430;-69
2022/01/03 03:28:37;;;;;;;0.60;0.60;;;9.30;99.90;;;;;;5013978;28;20174;-69
2022/01/03 03:31:03;;;;;;;0.67;0.67;;;9.30;99.90;;;;;;5013755;28;20419;-69
2022/01/03 03:33:29;;;;;;;0.80;0.80;;;9.30;99.90;;;;;;5013734;28;20416;-69
2022/01/03 03:35:56;;;;;;;0.80;0.80;;;9.30;99.90;;;;;;5013335;28;20447;-69
2022/01/03 03:38:25;;;;;;;2.60;0.93;;;9.30;99.90;;;;;;5013600;28;20182;-70
2022/01/03 03:40:52;;;;;;;2.00;0.70;;;9.30;99.90;;;;;;5013071;28;21043;-70
2022/01/03 03:43:18;;;;;;;1.43;0.80;;;9.20;99.90;;;;;;5013409;28;20472;-69
2022/01/03 03:45:45;;;;;;;1.13;0.90;;;9.20;99.90;;;;;;5013257;28;20431;-69
2022/01/03 03:48:11;;;;;;;0.90;0.90;;;9.20;99.90;;;;;;5028534;28;20404;-69
2022/01/03 03:50:36;;;;;;;1.00;0.80;;;9.10;99.90;;;;;;5013453;28;20416;-69
2022/01/03 03:53:03;;;;;;;0.70;0.63;;;9.10;99.90;;;;;;5013212;28;20210;-69
2022/01/03 03:55:28;;;;;;;0.80;0.80;;;9.10;99.90;;;;;;5012953;28;20197;-69
2022/01/03 03:57:54;;;;;;;1.03;0.87;;;9.10;99.90;;;;;;5013188;28;20809;-69
2022/01/03 04:00:20;;;;;;;0.80;0.80;;;9.10;99.90;;;;;;5013113;28;20648;-68
2022/01/03 04:02:46;;;;;;;0.80;0.80;;;9.10;99.90;;;;;;5013391;28;20169;-69
2022/01/03 04:05:11;;;;;;;1.00;0.90;;;9.10;99.90;;;;;;5013675;28;20950;-70
2022/01/03 04:07:37;;;;;;;1.13;1.10;;;9.10;99.90;;;;;;5013185;28;20169;-70
2022/01/03 04:10:08;;;;;;;0.97;0.97;;;9.10;99.90;;;;;;5012935;28;20172;-69
2022/01/03 04:12:34;;;;;;;0.80;0.80;;;9.10;99.90;;;;;;5012905;28;20239;-70
2022/01/03 04:14:59;;;;;;;0.80;0.80;;;9.10;99.90;;;;;;5013146;28;20424;-70
2022/01/03 04:17:25;;;;;;;2.47;1.67;;;9.10;99.90;;;;;;5012959;28;20173;-71
2022/01/03 04:19:50;;;;;;;1.10;0.97;;;9.10;99.90;;;;;;5012856;28;20604;-69
2022/01/03 04:22:16;;;;;;;1.00;1.00;;;9.10;99.90;;;;;;5012716;28;20169;-70
2022/01/03 04:24:42;;;;;;;0.93;0.83;;;9.10;99.90;;;;;;5012494;28;20264;-70
2022/01/03 04:27:07;;;;;;;0.97;0.83;;;9.10;99.90;;;;;;5012373;28;20166;-70
2022/01/03 04:29:33;;;;;;;1.80;0.90;;;9.10;99.90;;;;;;5012770;28;20172;-69
2022/01/03 04:31:58;;;;;;;2.10;1.30;;;9.00;99.90;;;;;;5012564;28;20240;-69
2022/01/03 04:34:24;;;;;;;1.63;1.20;;;9.00;99.90;;;;;;5012469;28;20689;-70
2022/01/03 04:36:49;;;;;;;0.80;0.73;;;9.00;99.90;;;;;;5050773;23;20239;-71
2022/01/03 04:39:15;;;;;;;1.17;1.07;;;8.90;99.90;;;;;;5033244;28;20180;-74
2022/01/03 04:41:40;;;;;;;1.13;1.03;;;8.90;99.90;;;;;;5033273;28;20669;-72
2022/01/03 04:44:06;;;;;;;0.93;0.90;;;8.90;99.90;;;;;;5033352;28;20175;-74
2022/01/03 04:46:36;;;;;;;1.43;1.33;;;8.90;99.90;;;;;;5033449;28;20228;-75
2022/01/03 04:49:04;;;;;;;0.67;0.67;;;8.80;99.90;;;;;;5033431;28;20177;-72
2022/01/03 04:51:29;;;;;;;0.60;0.60;;;8.80;99.90;;;;;;5032877;28;20904;-73
2022/01/03 04:53:55;;;;;;;0.60;0.60;;;8.80;99.90;;;;;;5032606;28;20410;-73
2022/01/03 04:56:20;;;;;;;0.60;0.60;;;8.90;99.90;;;;;;5032884;28;20658;-73
2022/01/03 04:58:46;;;;;;;0.70;0.60;;;8.80;99.90;;;;;;5033372;28;20180;-71
2022/01/03 05:01:12;;;;;;;0.50;0.50;;;8.90;99.90;;;;;;5033858;28;20196;-74
2022/01/03 05:03:38;;;;;;;0.60;0.50;;;8.90;99.90;;;;;;5034292;28;20227;-74
2022/01/03 05:06:04;;;;;;;0.60;0.60;;;8.90;99.90;;;;;;5033803;28;20184;-74
2022/01/03 05:08:30;;;;;;;1.53;0.90;;;8.90;99.90;;;;;;5034795;28;20501;-73
2022/01/03 05:11:00;;;;;;;0.50;0.50;;;8.90;99.90;;;;;;5033719;28;20407;-73
2022/01/03 05:13:26;;;;;;;0.60;0.60;;;8.90;99.90;;;;;;5032844;28;20403;-73
2022/01/03 05:15:51;;;;;;;0.60;0.60;;;8.80;99.90;;;;;;5034299;28;20841;-73
2022/01/03 05:18:16;;;;;;;0.63;0.63;;;8.80;99.90;;;;;;5035258;28;20656;-72
2022/01/03 05:20:42;;;;;;;0.60;0.60;;;8.80;99.90;;;;;;5038175;28;20179;-73
2022/01/03 05:23:08;;;;;;;0.50;0.50;;;8.80;99.90;;;;;;5038069;28;20172;-72
2022/01/03 05:25:33;;;;;;;0.60;0.60;;;8.80;99.90;;;;;;5039073;28;20621;-74
2022/01/03 05:27:59;;;;;;;0.70;0.60;;;8.80;99.90;;;;;;5034844;28;20411;-72
2022/01/03 05:30:25;;;;;;;0.60;0.60;;;8.80;99.90;;;;;;5036814;28;20167;-74
2022/01/03 05:32:50;;;;;;;0.70;0.70;;;8.70;99.90;;;;;;5035609;28;20251;-74
2022/01/03 05:35:15;;;;;;;0.50;0.50;;;8.70;99.90;;;;;;5035465;28;20713;-75
2022/01/03 05:37:41;;;;;;;0.60;0.60;;;8.60;99.90;;;;;;5033369;28;20251;-70
2022/01/03 05:40:07;;;;;;;1.47;0.60;;;8.60;99.90;;;;;;5032694;28;20206;-73
2022/01/03 05:42:33;;;;;;;0.60;0.60;;;8.50;99.90;;;;;;5033453;28;20274;-75
2022/01/03 05:44:58;;;;;;;0.60;0.60;;;8.50;99.90;;;;;;5033478;28;20431;-73
2022/01/03 05:47:24;;;;;;;3.77;0.90;;;8.50;99.90;;;;;;5042317;28;20163;-71
2022/01/03 05:49:49;;;;;;;0.60;0.60;;;8.40;99.90;;;;;;5038277;28;20579;-72
2022/01/03 05:52:15;;;;;;;0.57;0.57;;;8.40;99.90;;;;;;5047400;28;20230;-72
2022/01/03 05:54:40;;;;;;;0.70;0.60;;;8.30;99.90;;;;;;5045668;28;20172;-74
2022/01/03 05:57:06;;;;;;;1.23;1.13;;;8.20;99.90;;;;;;5043241;28;20194;-73
2022/01/03 05:59:32;;;;;;;0.70;0.60;;;8.20;99.90;;;;;;5044437;28;20225;-72
2022/01/03 06:01:57;;;;;;;2.37;0.70;;;8.10;99.90;;;;;;5045034;28;20666;-74
2022/01/03 06:04:34;;;;;;;0.77;0.77;;;8.10;99.90;;;;;;5045533;28;20569;-74
2022/01/03 06:07:05;;;;;;;1.00;0.80;;;8.20;99.90;;;;;;5041867;28;20202;-71
2022/01/03 06:09:31;;;;;;;0.67;0.67;;;8.20;99.90;;;;;;5033256;28;20407;-74
2022/01/03 06:11:58;;;;;;;4.00;0.97;;;8.20;99.90;;;;;;5033498;28;20413;-73
2022/01/03 06:14:24;;;;;;;0.63;0.63;;;8.20;99.90;;;;;;5034053;28;20599;-73
2022/01/03 06:16:50;;;;;;;1.10;0.90;;;8.20;99.90;;;;;;5033803;28;20799;-73
2022/01/03 06:19:16;;;;;;;0.70;0.70;;;8.20;99.90;;;;;;5032928;28;20429;-73
2022/01/03 06:21:41;;;;;;;2.20;0.70;;;8.20;99.90;;;;;;5031217;28;20680;-73
2022/01/03 06:24:09;;;;;;;0.70;0.70;;;8.20;99.90;;;;;;5037337;28;20508;-71
2022/01/03 06:26:35;;;;;;;1.07;0.70;;;8.20;99.90;;;;;;5043192;28;20215;-72
2022/01/03 06:29:00;;;;;;;0.80;0.80;;;8.20;99.90;;;;;;5045327;28;20449;-72
2022/01/03 06:31:26;;;;;;;3.47;0.70;;;8.20;99.90;;;;;;5043645;28;20411;-72
2022/01/03 06:33:51;;;;;;;2.63;1.10;;;8.20;99.90;;;;;;5041015;28;20179;-72
2022/01/03 06:36:17;;;;;;;0.57;0.57;;;8.20;99.90;;;;;;5041473;28;20204;-72
2022/01/03 06:38:42;;;;;;;0.70;0.70;;;8.30;99.90;;;;;;5035612;28;20190;-73
2022/01/03 06:41:08;;;;;;;1.00;1.00;;;8.30;99.90;;;;;;5034915;28;20763;-74
2022/01/03 06:43:35;;;;;;;1.23;0.80;;;8.30;99.90;;;;;;5037483;28;20250;-73
2022/01/03 06:46:01;;;;;;;4.40;0.90;;;8.30;99.90;;;;;;5032476;28;20601;-72
2022/01/03 06:48:26;;;;;;;1.37;1.27;;;8.30;99.90;;;;;;5032355;28;20402;-73
2022/01/03 06:50:52;;;;;;;1.10;1.00;;;8.40;99.90;;;;;;5033959;28;20179;-72
2022/01/03 06:53:17;;;;;;;0.80;0.80;;;8.40;99.90;;;;;;5035347;28;20666;-73
2022/01/03 06:55:43;;;;;;;2.40;0.60;;;8.40;99.90;;;;;;5036163;28;20192;-73
2022/01/03 06:58:08;;;;;;;0.93;0.93;;;8.40;99.90;;;;;;5035459;28;20582;-73
2022/01/03 07:00:34;;;;;;;1.10;1.00;;;8.50;99.90;;;;;;5035064;28;20275;-73
2022/01/03 07:02:59;;;;;;;1.00;1.00;;;8.50;99.90;;;;;;5035181;28;20172;-74
2022/01/03 07:05:25;;;;;;;1.50;1.40;;;8.50;99.90;;;;;;5035265;28;20218;-74
2022/01/03 07:07:50;;;;;;;1.10;1.00;;;8.50;99.90;;;;;;5034944;28;20180;-74
2022/01/03 07:10:18;;;;;;;1.37;0.90;;;8.50;99.90;;;;;;5035066;28;20206;-72
2022/01/03 07:12:43;;;;;;;0.90;0.90;;;8.60;99.90;;;;;;5035022;28;20170;-72
2022/01/03 07:20:38;;;;;;;1.40;1.30;;;8.70;99.90;;;;;;5034591;28;20514;-74
2022/01/03 07:23:04;;;;;;;9.03;1.93;;;8.70;99.90;;;;;;5033108;28;20411;-73
2022/01/03 07:25:30;;;;;;;2.70;1.37;;;8.70;99.90;;;;;;5034422;28;20477;-73
2022/01/03 07:27:55;;;;;;;2.50;1.30;;;8.70;99.90;;;;;;5034486;28;20167;-74
2022/01/03 07:30:21;;;;;;;1.40;1.07;;;8.70;99.90;;;;;;5034399;28;20180;-74
2022/01/03 07:32:46;;;;;;;3.17;1.77;;;8.70;99.90;;;;;;5034272;28;20171;-73
2022/01/03 07:35:14;;;;;;;3.03;1.10;;;8.80;99.90;;;;;;5033884;28;21881;-75
2022/01/03 07:37:40;;;;;;;1.23;0.97;;;8.80;99.90;;;;;;5034526;28;20180;-74
2022/01/03 07:40:06;;;;;;;4.23;1.77;;;8.80;99.90;;;;;;5033800;28;20434;-74
2022/01/03 07:42:32;;;;;;;1.63;1.53;;;8.80;99.90;;;;;;5034299;28;20444;-74
2022/01/03 07:44:57;;;;;;;3.30;1.70;;;8.90;99.90;;;;;;5034445;28;20819;-74
2022/01/03 07:47:23;;;;;;;1.70;1.60;;;8.90;99.90;;;;;;5034372;28;20175;-75
2022/01/03 07:49:48;;;;;;;2.20;1.13;;;8.90;99.90;;;;;;5034692;28;20231;-73
2022/01/03 07:52:14;;;;;;;2.80;1.40;;;8.90;99.90;;;;;;5033583;28;20661;-72
2022/01/03 07:54:39;;;;;;;1.20;1.10;;;8.90;99.90;;;;;;5033817;28;20182;-73
2022/01/03 07:57:05;;;;;;;1.53;1.43;;;9.00;99.90;;;;;;5033638;28;20641;-72
2022/01/03 07:59:30;;;;;;;1.40;1.20;;;9.00;99.90;;;;;;5033784;28;20175;-74
2022/01/03 08:01:58;;;;;;;1.23;1.10;;;9.00;99.90;;;;;;5032946;28;20286;-72
2022/01/03 08:04:24;;;;;;;2.50;1.20;;;9.00;99.90;;;;;;5034060;28;20162;-73
2022/01/03 08:06:49;;;;;;;2.30;1.30;;;9.00;99.90;;;;;;5032365;28;20442;-73
2022/01/03 08:09:15;;;;;;;1.13;0.93;;;9.00;99.90;;;;;;5033917;28;20174;-76
2022/01/03 08:11:40;;;;;;;1.30;1.20;;;9.00;99.90;;;;;;5033559;28;20180;-73
2022/01/03 08:14:06;;;;;;;1.67;0.80;;;9.00;99.90;;;;;;5033692;28;20537;-73
2022/01/03 08:16:32;;;;;;;1.70;1.00;;;9.00;99.90;;;;;;5033342;28;20208;-73
2022/01/03 08:18:57;;;;;;;3.77;1.13;;;9.00;99.90;;;;;;5033562;28;20173;-72
2022/01/03 08:21:23;;;;;;;1.50;1.00;;;9.00;99.90;;;;;;5033998;28;20255;-77
2022/01/03 08:23:48;;;;;;;1.77;0.87;;;9.00;99.90;;;;;;5035441;28;20271;-73
2022/01/03 08:26:14;;;;;;;2.50;1.10;;;9.00;99.90;;;;;;5032976;28;20192;-73
2022/01/03 08:28:39;;;;;;;3.77;0.97;;;9.00;99.90;;;;;;5033223;28;20206;-74
2022/01/03 08:31:05;;;;;;;1.30;1.20;;;8.90;99.90;;;;;;5031837;28;20573;-74
2022/01/03 08:33:30;;;;;;;3.77;1.07;;;8.90;99.90;;;;;;5032884;28;20638;-73
2022/01/03 08:35:57;;;;;;;1.03;0.87;;;8.80;99.90;;;;;;5032665;28;20585;-72
2022/01/03 08:38:23;;;;;;;4.00;1.43;;;8.80;99.90;;;;;;5033024;28;20163;-75
2022/01/03 08:40:49;;;;;;;2.87;0.90;;;8.90;99.90;;;;;;5032617;28;20453;-73
2022/01/03 08:43:14;;;;;;;3.60;0.90;;;8.80;99.90;;;;;;5032820;28;20181;-71
2022/01/03 08:45:39;;;;;;;1.90;0.93;;;8.90;99.90;;;;;;5033491;28;20557;-73
2022/01/03 08:48:05;;;;;;;2.03;1.53;;;9.00;99.90;;;;;;5033856;28;20220;-74
2022/01/03 08:50:30;;;;;;;0.97;0.87;;;9.00;99.90;;;;;;5034125;28;20649;-73
2022/01/03 08:52:56;;;;;;;1.80;0.93;;;9.00;99.90;;;;;;5033698;28;20601;-72
2022/01/03 08:55:21;;;;;;;0.80;0.80;;;9.00;99.90;;;;;;5032300;28;20189;-74
2022/01/03 08:57:51;;;;;;;1.10;0.97;;;9.10;99.90;;;;;;5033122;28;20262;-72
2022/01/03 09:00:17;;;;;;;2.30;1.00;;;9.20;99.90;;;;;;5032806;28;20597;-73
2022/01/03 09:02:42;;;;;;;0.93;0.93;;;9.20;99.90;;;;;;5032241;28;20835;-73
2022/01/03 09:05:08;;;;;;;1.70;1.10;;;9.50;99.90;;;;;;5032352;28;20442;-73
2022/01/03 09:07:34;;;;;;;1.23;0.90;;;9.50;99.90;;;;;;5032343;28;20183;-73
2022/01/03 09:09:59;;;;;;;2.03;0.80;;;9.50;99.90;;;;;;5032931;28;20171;-72
2022/01/03 09:12:25;;;;;;;6.50;1.70;;;9.40;99.90;;;;;;5032467;28;20163;-71
2022/01/03 09:14:50;;;;;;;4.33;1.90;;;9.50;99.90;;;;;;5031813;28;20226;-73
2022/01/03 09:17:15;;;;;;;1.83;1.73;;;9.50;99.90;;;;;;5032605;28;20195;-74
2022/01/03 09:19:41;;;;;;;0.70;0.60;;;9.50;99.90;;;;;;5033160;28;20626;-73
2022/01/03 09:22:15;;;;;;;2.17;1.10;;;9.50;99.90;;;;;;5033048;28;20263;-74
2022/01/03 09:24:54;;;;;;;1.53;0.83;;;9.60;99.90;;;;;;5032794;28;20161;-75
2022/01/03 09:30:06;;;;;;;5.13;0.90;;;9.60;99.90;;;;;;5030443;28;20920;-74
2022/01/03 09:32:32;;;;;;;4.27;1.50;;;9.50;99.90;;;;;;5031012;28;20425;-76
2022/01/03 09:34:58;;;;;;;2.10;0.83;;;9.50;99.90;;;;;;5032350;28;20422;-73
2022/01/03 09:37:24;;;;;;;2.07;1.23;;;9.60;99.90;;;;;;5032185;28;20172;-72
2022/01/03 09:39:50;;;;;;;1.60;0.97;;;9.70;99.90;;;;;;5029773;28;20414;-72
2022/01/03 09:42:23;;;;;;;3.17;1.47;;;9.60;99.90;;;;;;5031582;28;20910;-72
2022/01/03 09:44:50;;;;;;;0.80;0.80;;;9.80;99.90;;;;;;5032321;28;20443;-74
2022/01/03 09:47:17;;;;;;;4.20;1.17;;;9.70;99.90;;;;;;5031690;28;20437;-72
2022/01/03 09:49:44;;;;;;;1.23;1.10;;;9.70;99.90;;;;;;5031655;28;20398;-73
2022/01/03 09:52:09;;;;;;;6.83;1.67;;;9.90;99.90;;;;;;5031956;28;20437;-73
2022/01/03 09:54:37;;;;;;;1.90;1.33;;;9.90;99.90;;;;;;5032402;28;20410;-74
2022/01/03 09:57:04;;;;;;;1.33;0.80;;;9.90;99.90;;;;;;5032812;28;20195;-73
2022/01/03 09:59:31;;;;;;;2.07;1.23;;;9.90;99.90;;;;;;5033104;28;20415;-74
2022/01/03 10:01:58;;;;;;;1.63;1.20;;;10.00;99.90;;;;;;5033862;28;20493;-72
2022/01/03 10:04:24;;;;;;;3.80;1.13;;;9.90;99.90;;;;;;5032440;28;20414;-73
2022/01/03 10:06:50;;;;;;;3.73;2.00;;;9.90;99.90;;;;;;5033188;28;20518;-73
2022/01/03 10:09:17;;;;;;;1.30;1.20;;;10.00;99.90;;;;;;5032426;28;20167;-73
2022/01/03 10:11:42;;;;;;;2.53;1.13;;;10.00;99.90;;;;;;5032231;28;20167;-73
2022/01/03 10:14:09;;;;;;;1.10;1.00;;;10.00;99.90;;;;;;5032735;28;20418;-71
2022/01/03 10:16:34;;;;;;;2.00;1.80;;;9.90;99.90;;;;;;5031980;28;20573;-74
2022/01/03 10:19:00;;;;;;;1.43;0.90;;;9.80;99.90;;;;;;5031990;28;20410;-72
2022/01/03 10:21:38;;;;;;;4.23;3.77;;;9.70;99.90;;;;;;5031656;28;20201;-73
2022/01/03 10:24:05;;;;;;;1.27;1.00;;;9.80;99.90;;;;;;5032158;28;20634;-73
2022/01/03 10:26:31;;;;;;;2.73;1.13;;;9.80;99.90;;;;;;5034879;28;20483;-72
2022/01/03 10:29:24;;;;;;;9.33;1.00;;;9.80;99.90;;;;;;5036062;28;20936;-73
2022/01/03 10:31:53;;;;;;;4.20;1.30;;;9.90;99.90;;;;;;5024676;28;20214;-74
2022/01/03 10:34:21;;;;;;;5.13;2.70;;;10.00;99.90;;;;;;5035050;28;20919;-71
2022/01/03 10:36:48;;;;;;;2.13;1.27;;;10.10;99.90;;;;;;5035336;28;20446;-70
2022/01/03 10:39:19;;;;;;;4.73;0.80;;;10.30;99.90;;;;;;5034375;28;20424;-71
2022/01/03 10:41:47;;;;;;;3.63;1.47;;;10.20;99.90;;;;;;5033818;28;20596;-70
2022/01/03 10:44:30;;;;;;;3.27;1.20;;;10.30;99.90;;;;;;5034896;28;20493;-71
2022/01/03 10:46:55;;;;;;;1.67;1.40;;;10.40;99.90;;;;;;5034397;28;20426;-70
2022/01/03 10:49:25;;;;;;;1.80;0.90;;;10.50;99.90;;;;;;5034646;28;20490;-69
2022/01/03 10:51:51;;;;;;;2.20;2.00;;;10.50;99.90;;;;;;5034207;28;20179;-69
2022/01/03 10:54:18;;;;;;;1.90;1.00;;;10.50;99.90;;;;;;5034185;28;20414;-71
2022/01/03 10:56:50;;;;;;;3.27;1.33;;;10.40;99.90;;;;;;5032853;28;20496;-71
2022/01/03 10:59:30;;;;;;;1.30;1.20;;;10.50;99.90;;;;;;5034488;28;20490;-72
2022/01/03 11:02:00;;;;;;;1.90;1.57;;;10.40;99.90;;;;;;5034119;28;20469;-72
2022/01/03 11:04:50;;;;;;;1.60;1.40;;;10.30;99.90;;;;;;5034186;28;20409;-71
2022/01/03 11:13:05;;;;;;;1.53;1.10;;;10.60;99.90;;;;;;5032040;28;20469;-74
2022/01/03 11:15:31;;;;;;;2.23;1.17;;;10.60;99.90;;;;;;5016030;28;20450;-70
2022/01/03 11:18:18;;;;;;;1.90;1.40;;;10.60;99.90;;;;;;5032046;28;20414;-70
2022/01/03 11:20:49;;;;;;;1.97;1.03;;;10.40;99.90;;;;;;5028676;28;20188;-69
2022/01/03 11:23:20;;;;;;;3.43;1.73;;;10.50;99.90;;;;;;5033795;28;20418;-70
2022/01/03 11:25:46;;;;;;;4.07;1.33;;;10.30;99.90;;;;;;5033812;28;20438;-69
2022/01/03 11:28:12;;;;;;;1.30;1.20;;;10.30;99.90;;;;;;5034049;28;20421;-69
2022/01/03 11:30:42;;;;;;;1.83;1.10;;;10.30;99.90;;;;;;5034009;28;20413;-70
2022/01/03 11:33:09;;;;;;;2.50;2.00;;;10.30;99.90;;;;;;5032118;28;20179;-71
2022/01/03 11:35:36;;;;;;;4.27;1.40;;;10.40;99.90;;;;;;5033407;28;20454;-70
2022/01/03 11:38:02;;;;;;;3.33;2.03;;;10.40;99.90;;;;;;5032375;28;20509;-70
2022/01/03 11:40:28;;;;;;;1.47;1.37;;;10.40;99.90;;;;;;5033451;28;20508;-70
2022/01/03 11:42:54;;;;;;;1.67;1.20;;;10.40;99.90;;;;;;5033357;28;20935;-70
2022/01/03 11:45:20;;;;;;;1.47;1.37;;;10.40;99.90;;;;;;5033092;28;20438;-71
2022/01/03 11:47:47;;;;;;;1.97;1.87;;;10.40;99.90;;;;;;5033401;28;20505;-70
2022/01/03 11:50:13;;;;;;;2.47;1.20;;;10.40;99.90;;;;;;5033254;28;20468;-70
2022/01/03 11:52:43;;;;;;;2.57;1.60;;;10.40;99.90;;;;;;5032882;28;20417;-71
2022/01/03 11:55:11;;;;;;;5.00;1.40;;;10.40;99.90;;;;;;5032946;28;20187;-70
2022/01/03 11:57:58;;;;;;;5.73;1.43;;;10.50;99.90;;;;;;5033113;28;20418;-69
2022/01/03 12:05:57;;;;;;;2.50;1.53;;;10.60;99.90;;;;;;5017703;28;20437;-69
2022/01/03 12:08:28;;;;;;;5.43;1.90;;;10.50;99.90;;;;;;5026848;28;20791;-70
2022/01/03 12:10:55;;;;;;;1.30;1.10;;;10.50;99.90;;;;;;5032636;28;20421;-71
2022/01/03 12:13:40;;;;;;;1.77;1.67;;;10.50;99.90;;;;;;5032820;28;20509;-72
2022/01/03 12:16:06;;;;;;;5.80;1.70;;;10.50;99.90;;;;;;5032907;28;20485;-70
2022/01/03 12:18:32;;;;;;;1.80;1.70;;;10.50;99.90;;;;;;5033189;28;20453;-70
2022/01/03 12:20:58;;;;;;;2.67;1.90;;;10.60;99.90;;;;;;5033090;28;20199;-70
2022/01/03 12:23:41;;;;;;;1.37;1.27;;;10.60;99.90;;;;;;5032973;28;20505;-69
2022/01/03 12:26:23;;;;;;;5.53;1.97;;;10.70;99.90;;;;;;5032549;28;20522;-71
2022/01/03 12:29:08;;;;;;;4.27;1.80;;;10.70;99.90;;;;;;5032535;28;20440;-70
2022/01/03 12:32:09;;;;;;;5.33;2.10;;;10.70;99.90;;;;;;5031237;28;20422;-69
2022/01/03 12:34:35;;;;;;;8.33;2.40;;;10.70;99.90;;;;;;4963775;28;20461;-69
2022/01/03 12:37:18;;;;;;;7.80;1.90;;;10.80;99.90;;;;;;5014815;28;21045;-69
2022/01/03 12:40:05;;;;;;;1.40;1.30;;;10.80;99.90;;;;;;5031828;28;20180;-70
2022/01/03 12:42:45;;;;;;;1.33;1.23;;;10.80;99.90;;;;;;5031943;28;20476;-71
2022/01/03 12:45:11;;;;;;;1.17;1.00;;;10.70;99.90;;;;;;5012992;28;20399;-68
2022/01/03 12:47:38;;;;;;;2.07;1.60;;;10.60;99.90;;;;;;5032104;28;20411;-69
2022/01/03 12:50:21;;;;;;;2.20;1.53;;;10.70;99.90;;;;;;5031896;28;20183;-70
2022/01/03 12:52:46;;;;;;;5.57;1.53;;;10.80;99.90;;;;;;5031843;28;20403;-69
2022/01/03 12:55:37;;;;;;;3.60;1.43;;;10.80;99.90;;;;;;5030073;28;20406;-69
2022/01/03 12:58:19;;;;;;;3.23;1.50;;;10.80;99.90;;;;;;5031986;28;20657;-68
2022/01/03 13:00:49;;;;;;;5.43;1.40;;;10.70;99.90;;;;;;5031712;28;20453;-69
2022/01/03 13:03:26;;;;;;;3.13;1.80;;;10.70;99.90;;;;;;5031628;28;20442;-70
2022/01/03 13:06:13;;;;;;;2.40;1.30;;;10.80;99.90;;;;;;5031404;28;20435;-69
2022/01/03 13:08:47;;;;;;;4.37;1.83;;;10.70;99.90;;;;;;5037205;28;20416;-69
2022/01/03 13:11:15;;;;;;;5.50;1.97;;;10.70;99.90;;;;;;5031614;28;20463;-69
2022/01/03 13:13:42;;;;;;;4.40;1.87;;;10.60;99.90;;;;;;5031591;28;20448;-69
2022/01/03 13:16:23;;;;;;;2.43;1.43;;;10.70;99.90;;;;;;5031476;28;20611;-68
2022/01/03 13:18:51;;;;;;;3.20;2.10;;;10.70;99.90;;;;;;5035736;28;20421;-70